sensor_id;sensor_type;location;lat;lon;timestamp;pressure;altitude;pressure_sealevel;temperature;humidity
57568;BME280;43403;51.948;5.922;2023-05-23T00:01:36;101745.75;;;16.73;100.00
57568;BME280;43403;51.948;5.922;2023-05-23T00:04:03;101751.56;;;16.77;100.00
57568;BME280;43403;51.948;5.922;2023-05-23T00:06:30;101743.94;;;16.74;100.00
57568;BME280;43403;51.948;5.922;2023-05-23T00:08:57;101744.28;;;16.71;100.00
57568;BME280;43403;51.948;5.922;2023-05-23T00:11:23;101741.47;;;16.72;100.00
57568;BME280;43403;51.948;5.922;2023-05-23T00:13:52;101742.28;;;16.73;100.00
57568;BME280;43403;51.948;5.922;2023-05-23T00:16:19;101743.94;;;16.74;100.00
57568;BME280;43403;51.948;5.922;2023-05-23T00:18:46;101737.16;;;16.71;100.00
57568;BME280;43403;51.948;5.922;2023-05-23T00:21:15;101737.31;;;16.61;100.00
57568;BME280;43403;51.948;5.922;2023-05-23T00:23:45;101739.97;;;16.61;100.00
57568;BME280;43403;51.948;5.922;2023-05-23T00:26:12;101745.09;;;16.63;100.00
57568;BME280;43403;51.948;5.922;2023-05-23T00:28:38;101740.47;;;16.57;100.00
57568;BME280;43403;51.948;5.922;2023-05-23T00:31:05;101740.63;;;16.55;100.00
57568;BME280;43403;51.948;5.922;2023-05-23T00:33:31;101742.91;;;16.50;100.00
57568;BME280;43403;51.948;5.922;2023-05-23T00:35:59;101745.41;;;16.60;100.00
57568;BME280;43403;51.948;5.922;2023-05-23T00:38:25;101751.22;;;16.55;100.00
57568;BME280;43403;51.948;5.922;2023-05-23T00:40:53;101748.41;;;16.57;100.00
57568;BME280;43403;51.948;5.922;2023-05-23T00:43:20;101755.69;;;16.55;100.00
57568;BME280;43403;51.948;5.922;2023-05-23T00:45:47;101761.16;;;16.53;100.00
57568;BME280;43403;51.948;5.922;2023-05-23T00:48:14;101753.19;;;16.53;100.00
57568;BME280;43403;51.948;5.922;2023-05-23T00:50:41;101762.28;;;16.43;100.00
57568;BME280;43403;51.948;5.922;2023-05-23T00:53:08;101770.84;;;16.28;100.00
57568;BME280;43403;51.948;5.922;2023-05-23T00:55:34;101765.69;;;16.27;100.00
57568;BME280;43403;51.948;5.922;2023-05-23T00:58:01;101771.63;;;16.12;100.00
57568;BME280;43403;51.948;5.922;2023-05-23T01:00:27;101762.31;;;16.00;100.00
57568;BME280;43403;51.948;5.922;2023-05-23T01:02:54;101769.25;;;16.01;100.00
57568;BME280;43403;51.948;5.922;2023-05-23T01:05:21;101767.25;;;16.03;100.00
57568;BME280;43403;51.948;5.922;2023-05-23T01:07:50;101766.44;;;16.02;100.00
57568;BME280;43403;51.948;5.922;2023-05-23T01:10:20;101772.91;;;16.00;100.00
57568;BME280;43403;51.948;5.922;2023-05-23T01:13:26;101777.84;;;16.03;100.00
57568;BME280;43403;51.948;5.922;2023-05-23T01:15:57;101770.09;;;16.01;100.00
57568;BME280;43403;51.948;5.922;2023-05-23T01:26:53;101781.81;;;15.99;100.00
57568;BME280;43403;51.948;5.922;2023-05-23T01:29:28;101785.13;;;16.01;100.00
57568;BME280;43403;51.948;5.922;2023-05-23T01:31:57;101790.41;;;16.01;100.00
57568;BME280;43403;51.948;5.922;2023-05-23T01:34:25;101785.09;;;15.93;100.00
57568;BME280;43403;51.948;5.922;2023-05-23T01:36:54;101797.34;;;15.94;100.00
57568;BME280;43403;51.948;5.922;2023-05-23T01:39:22;101786.25;;;15.90;100.00
57568;BME280;43403;51.948;5.922;2023-05-23T01:41:49;101786.09;;;15.92;100.00
57568;BME280;43403;51.948;5.922;2023-05-23T01:44:16;101779.63;;;15.86;100.00
57568;BME280;43403;51.948;5.922;2023-05-23T01:46:46;101783.59;;;15.90;100.00
57568;BME280;43403;51.948;5.922;2023-05-23T01:49:14;101782.94;;;15.88;100.00
57568;BME280;43403;51.948;5.922;2023-05-23T01:51:42;101786.25;;;15.90;100.00
57568;BME280;43403;51.948;5.922;2023-05-23T01:54:09;101784.41;;;15.91;100.00
57568;BME280;43403;51.948;5.922;2023-05-23T01:56:35;101780.13;;;15.90;100.00
57568;BME280;43403;51.948;5.922;2023-05-23T01:59:02;101792.00;;;15.86;100.00
57568;BME280;43403;51.948;5.922;2023-05-23T02:01:29;101795.34;;;15.88;100.00
57568;BME280;43403;51.948;5.922;2023-05-23T02:03:56;101796.47;;;15.85;100.00
57568;BME280;43403;51.948;5.922;2023-05-23T02:06:23;101797.75;;;15.81;100.00
57568;BME280;43403;51.948;5.922;2023-05-23T02:08:49;101805.84;;;15.79;100.00
57568;BME280;43403;51.948;5.922;2023-05-23T02:11:16;101809.00;;;15.83;100.00
57568;BME280;43403;51.948;5.922;2023-05-23T02:13:42;101810.03;;;15.82;100.00
57568;BME280;43403;51.948;5.922;2023-05-23T02:16:09;101816.31;;;15.89;100.00
57568;BME280;43403;51.948;5.922;2023-05-23T02:18:36;101810.16;;;15.80;100.00
57568;BME280;43403;51.948;5.922;2023-05-23T02:21:04;101803.06;;;15.81;100.00
57568;BME280;43403;51.948;5.922;2023-05-23T02:23:31;101804.88;;;15.80;100.00
57568;BME280;43403;51.948;5.922;2023-05-23T02:25:57;101808.69;;;15.78;100.00
57568;BME280;43403;51.948;5.922;2023-05-23T02:28:24;101812.28;;;15.77;100.00
57568;BME280;43403;51.948;5.922;2023-05-23T02:30:50;101812.59;;;15.74;100.00
57568;BME280;43403;51.948;5.922;2023-05-23T02:33:17;101812.50;;;15.66;100.00
57568;BME280;43403;51.948;5.922;2023-05-23T02:35:43;101815.84;;;15.68;100.00
57568;BME280;43403;51.948;5.922;2023-05-23T02:38:09;101824.25;;;15.63;100.00
57568;BME280;43403;51.948;5.922;2023-05-23T02:40:36;101824.72;;;15.58;100.00
57568;BME280;43403;51.948;5.922;2023-05-23T02:43:02;101826.50;;;15.58;100.00
57568;BME280;43403;51.948;5.922;2023-05-23T02:45:29;101826.22;;;15.61;100.00
57568;BME280;43403;51.948;5.922;2023-05-23T02:47:55;101829.84;;;15.60;100.00
57568;BME280;43403;51.948;5.922;2023-05-23T02:50:22;101830.34;;;15.63;100.00
57568;BME280;43403;51.948;5.922;2023-05-23T02:52:49;101832.84;;;15.65;100.00
57568;BME280;43403;51.948;5.922;2023-05-23T02:55:16;101830.69;;;15.60;100.00
57568;BME280;43403;51.948;5.922;2023-05-23T02:57:42;101839.97;;;15.65;100.00
57568;BME280;43403;51.948;5.922;2023-05-23T03:00:09;101831.03;;;15.66;100.00
57568;BME280;43403;51.948;5.922;2023-05-23T03:02:37;101829.69;;;15.61;100.00
57568;BME280;43403;51.948;5.922;2023-05-23T03:05:04;101837.25;;;15.74;100.00
57568;BME280;43403;51.948;5.922;2023-05-23T03:07:31;101829.59;;;15.71;100.00
57568;BME280;43403;51.948;5.922;2023-05-23T03:09:59;101829.53;;;15.63;100.00
57568;BME280;43403;51.948;5.922;2023-05-23T03:12:29;101828.09;;;15.69;100.00
57568;BME280;43403;51.948;5.922;2023-05-23T03:14:55;101834.00;;;15.62;100.00
57568;BME280;43403;51.948;5.922;2023-05-23T03:17:24;101835.22;;;15.50;100.00
57568;BME280;43403;51.948;5.922;2023-05-23T03:19:50;101831.75;;;15.50;100.00
57568;BME280;43403;51.948;5.922;2023-05-23T03:22:17;101833.03;;;15.46;100.00
57568;BME280;43403;51.948;5.922;2023-05-23T03:24:43;101835.53;;;15.47;100.00
57568;BME280;43403;51.948;5.922;2023-05-23T03:27:09;101846.25;;;15.46;100.00
57568;BME280;43403;51.948;5.922;2023-05-23T03:29:36;101851.69;;;15.44;100.00
57568;BME280;43403;51.948;5.922;2023-05-23T03:32:02;101852.03;;;15.41;100.00
57568;BME280;43403;51.948;5.922;2023-05-23T03:34:29;101845.88;;;15.40;100.00
57568;BME280;43403;51.948;5.922;2023-05-23T03:36:58;101852.84;;;15.41;100.00
57568;BME280;43403;51.948;5.922;2023-05-23T03:39:24;101835.91;;;15.34;100.00
57568;BME280;43403;51.948;5.922;2023-05-23T03:41:51;101849.66;;;15.38;100.00
57568;BME280;43403;51.948;5.922;2023-05-23T03:44:17;101847.16;;;15.36;100.00
57568;BME280;43403;51.948;5.922;2023-05-23T03:46:44;101849.53;;;15.39;100.00
57568;BME280;43403;51.948;5.922;2023-05-23T03:49:10;101845.72;;;15.42;100.00
57568;BME280;43403;51.948;5.922;2023-05-23T03:51:37;101843.22;;;15.40;100.00
57568;BME280;43403;51.948;5.922;2023-05-23T03:54:03;101853.22;;;15.47;100.00
57568;BME280;43403;51.948;5.922;2023-05-23T03:56:30;101865.38;;;15.39;100.00
57568;BME280;43403;51.948;5.922;2023-05-23T03:58:56;101850.19;;;15.41;100.00
57568;BME280;43403;51.948;5.922;2023-05-23T04:01:22;101855.53;;;15.50;100.00
57568;BME280;43403;51.948;5.922;2023-05-23T04:03:49;101849.44;;;15.49;100.00
57568;BME280;43403;51.948;5.922;2023-05-23T04:06:16;101863.19;;;15.53;100.00
57568;BME280;43403;51.948;5.922;2023-05-23T04:08:43;101860.69;;;15.51;100.00
57568;BME280;43403;51.948;5.922;2023-05-23T04:11:10;101864.16;;;15.52;100.00
57568;BME280;43403;51.948;5.922;2023-05-23T04:13:36;101859.69;;;15.52;100.00
57568;BME280;43403;51.948;5.922;2023-05-23T04:16:03;101867.72;;;15.60;100.00
57568;BME280;43403;51.948;5.922;2023-05-23T04:18:31;101872.63;;;15.55;100.00
57568;BME280;43403;51.948;5.922;2023-05-23T04:21:04;101869.69;;;15.58;100.00
57568;BME280;43403;51.948;5.922;2023-05-23T04:23:31;101861.38;;;15.53;100.00
57568;BME280;43403;51.948;5.922;2023-05-23T04:25:57;101871.31;;;15.59;100.00
57568;BME280;43403;51.948;5.922;2023-05-23T04:28:25;101878.09;;;15.62;100.00
57568;BME280;43403;51.948;5.922;2023-05-23T04:30:52;101884.25;;;15.62;100.00
57568;BME280;43403;51.948;5.922;2023-05-23T04:33:19;101882.94;;;15.67;100.00
57568;BME280;43403;51.948;5.922;2023-05-23T04:35:47;101891.50;;;15.60;100.00
57568;BME280;43403;51.948;5.922;2023-05-23T04:38:14;101891.50;;;15.60;100.00
57568;BME280;43403;51.948;5.922;2023-05-23T04:40:40;101897.09;;;15.57;100.00
57568;BME280;43403;51.948;5.922;2023-05-23T04:43:07;101887.13;;;15.51;100.00
57568;BME280;43403;51.948;5.922;2023-05-23T04:45:36;101892.63;;;15.58;100.00
57568;BME280;43403;51.948;5.922;2023-05-23T04:48:03;101902.91;;;15.61;100.00
57568;BME280;43403;51.948;5.922;2023-05-23T04:50:29;101899.94;;;15.64;100.00
57568;BME280;43403;51.948;5.922;2023-05-23T04:52:58;101896.72;;;15.70;100.00
57568;BME280;43403;51.948;5.922;2023-05-23T04:55:25;101909.41;;;15.67;100.00
57568;BME280;43403;51.948;5.922;2023-05-23T04:57:51;101913.88;;;15.66;100.00
57568;BME280;43403;51.948;5.922;2023-05-23T05:00:18;101924.22;;;15.59;100.00
57568;BME280;43403;51.948;5.922;2023-05-23T05:02:45;101927.00;;;15.58;100.00
57568;BME280;43403;51.948;5.922;2023-05-23T05:05:12;101921.50;;;15.51;100.00
57568;BME280;43403;51.948;5.922;2023-05-23T05:07:38;101926.25;;;15.48;100.00
57568;BME280;43403;51.948;5.922;2023-05-23T05:10:05;101928.09;;;15.47;100.00
57568;BME280;43403;51.948;5.922;2023-05-23T05:12:32;101933.59;;;15.36;100.00
57568;BME280;43403;51.948;5.922;2023-05-23T05:14:59;101932.63;;;15.37;100.00
57568;BME280;43403;51.948;5.922;2023-05-23T05:17:26;101928.44;;;15.34;100.00
57568;BME280;43403;51.948;5.922;2023-05-23T05:19:53;101937.91;;;15.37;100.00
57568;BME280;43403;51.948;5.922;2023-05-23T05:22:19;101942.81;;;15.32;100.00
57568;BME280;43403;51.948;5.922;2023-05-23T05:24:46;101952.03;;;15.28;100.00
57568;BME280;43403;51.948;5.922;2023-05-23T05:27:12;101954.25;;;15.22;100.00
57568;BME280;43403;51.948;5.922;2023-05-23T05:29:39;101955.53;;;15.18;100.00
57568;BME280;43403;51.948;5.922;2023-05-23T05:32:05;101961.34;;;15.04;100.00
57568;BME280;43403;51.948;5.922;2023-05-23T05:34:34;101958.81;;;14.85;100.00
57568;BME280;43403;51.948;5.922;2023-05-23T05:37:00;101956.75;;;14.78;100.00
57568;BME280;43403;51.948;5.922;2023-05-23T05:39:27;101972.16;;;14.83;100.00
57568;BME280;43403;51.948;5.922;2023-05-23T05:41:53;101965.06;;;14.83;100.00
57568;BME280;43403;51.948;5.922;2023-05-23T05:44:21;101971.16;;;14.94;100.00
57568;BME280;43403;51.948;5.922;2023-05-23T05:46:47;101973.38;;;14.89;100.00
57568;BME280;43403;51.948;5.922;2023-05-23T05:49:14;101981.03;;;14.92;100.00
57568;BME280;43403;51.948;5.922;2023-05-23T05:51:40;101977.78;;;14.98;100.00
57568;BME280;43403;51.948;5.922;2023-05-23T05:54:07;101979.44;;;14.99;100.00
57568;BME280;43403;51.948;5.922;2023-05-23T05:56:34;101987.47;;;15.07;100.00
57568;BME280;43403;51.948;5.922;2023-05-23T05:59:00;101988.00;;;15.11;100.00
57568;BME280;43403;51.948;5.922;2023-05-23T06:01:27;101993.16;;;15.12;100.00
57568;BME280;43403;51.948;5.922;2023-05-23T06:03:53;101996.38;;;15.06;100.00
57568;BME280;43403;51.948;5.922;2023-05-23T06:06:20;101993.44;;;15.09;100.00
57568;BME280;43403;51.948;5.922;2023-05-23T06:08:47;101998.47;;;15.02;100.00
57568;BME280;43403;51.948;5.922;2023-05-23T06:11:13;101999.97;;;15.05;100.00
57568;BME280;43403;51.948;5.922;2023-05-23T06:13:40;102014.66;;;14.99;100.00
57568;BME280;43403;51.948;5.922;2023-05-23T06:16:06;102014.34;;;15.02;100.00
57568;BME280;43403;51.948;5.922;2023-05-23T06:18:33;102017.47;;;14.88;100.00
57568;BME280;43403;51.948;5.922;2023-05-23T06:20:59;102007.31;;;14.83;100.00
57568;BME280;43403;51.948;5.922;2023-05-23T06:23:26;102010.38;;;14.89;100.00
57568;BME280;43403;51.948;5.922;2023-05-23T06:25:52;102014.13;;;14.86;100.00
57568;BME280;43403;51.948;5.922;2023-05-23T06:28:19;102013.63;;;14.73;100.00
57568;BME280;43403;51.948;5.922;2023-05-23T06:30:45;102020.91;;;14.61;100.00
57568;BME280;43403;51.948;5.922;2023-05-23T06:33:12;102016.72;;;14.49;100.00
57568;BME280;43403;51.948;5.922;2023-05-23T06:35:38;102025.47;;;14.49;100.00
57568;BME280;43403;51.948;5.922;2023-05-23T06:38:05;102022.00;;;14.49;100.00
57568;BME280;43403;51.948;5.922;2023-05-23T06:40:31;102039.81;;;14.37;100.00
57568;BME280;43403;51.948;5.922;2023-05-23T06:42:58;102029.25;;;14.37;100.00
57568;BME280;43403;51.948;5.922;2023-05-23T06:45:24;102037.44;;;14.34;100.00
57568;BME280;43403;51.948;5.922;2023-05-23T06:47:51;102039.53;;;14.40;100.00
57568;BME280;43403;51.948;5.922;2023-05-23T06:50:18;102043.16;;;14.39;100.00
57568;BME280;43403;51.948;5.922;2023-05-23T06:52:45;102046.63;;;14.39;100.00
57568;BME280;43403;51.948;5.922;2023-05-23T06:55:15;102047.03;;;14.44;100.00
57568;BME280;43403;51.948;5.922;2023-05-23T06:57:44;102048.25;;;14.50;100.00
57568;BME280;43403;51.948;5.922;2023-05-23T07:00:12;102053.41;;;14.61;100.00
57568;BME280;43403;51.948;5.922;2023-05-23T07:02:39;102058.81;;;14.60;100.00
57568;BME280;43403;51.948;5.922;2023-05-23T07:05:06;102049.63;;;14.64;100.00
57568;BME280;43403;51.948;5.922;2023-05-23T07:07:32;102059.09;;;14.67;100.00
57568;BME280;43403;51.948;5.922;2023-05-23T07:09:59;102060.38;;;14.62;100.00
57568;BME280;43403;51.948;5.922;2023-05-23T07:12:25;102059.09;;;14.67;98.98
57568;BME280;43403;51.948;5.922;2023-05-23T07:14:51;102066.16;;;14.66;96.22
57568;BME280;43403;51.948;5.922;2023-05-23T07:17:18;102070.59;;;14.75;93.88
57568;BME280;43403;51.948;5.922;2023-05-23T07:19:45;102068.97;;;14.74;90.84
57568;BME280;43403;51.948;5.922;2023-05-23T07:22:11;102068.63;;;14.87;92.09
57568;BME280;43403;51.948;5.922;2023-05-23T07:24:38;102068.31;;;15.00;90.20
57568;BME280;43403;51.948;5.922;2023-05-23T07:27:05;102066.91;;;15.06;86.95
57568;BME280;43403;51.948;5.922;2023-05-23T07:29:32;102071.59;;;15.12;86.21
57568;BME280;43403;51.948;5.922;2023-05-23T07:31:59;102083.13;;;15.11;86.77
57568;BME280;43403;51.948;5.922;2023-05-23T07:34:25;102071.97;;;15.17;85.50
57568;BME280;43403;51.948;5.922;2023-05-23T07:36:52;102069.78;;;15.12;81.80
57568;BME280;43403;51.948;5.922;2023-05-23T07:39:18;102084.00;;;15.11;82.62
57568;BME280;43403;51.948;5.922;2023-05-23T07:41:47;102082.28;;;15.20;84.67
57568;BME280;43403;51.948;5.922;2023-05-23T07:44:15;102083.63;;;15.24;81.82
57568;BME280;43403;51.948;5.922;2023-05-23T07:46:41;102088.00;;;15.15;82.31
57568;BME280;43403;51.948;5.922;2023-05-23T07:49:08;102087.28;;;15.23;83.59
57568;BME280;43403;51.948;5.922;2023-05-23T07:51:35;102082.91;;;15.32;85.37
57568;BME280;43403;51.948;5.922;2023-05-23T07:54:02;102092.38;;;15.52;85.60
57568;BME280;43403;51.948;5.922;2023-05-23T07:56:28;102093.88;;;15.65;81.74
57568;BME280;43403;51.948;5.922;2023-05-23T07:58:55;102099.34;;;15.81;78.67
57568;BME280;43403;51.948;5.922;2023-05-23T08:01:21;102095.56;;;15.84;77.85
57568;BME280;43403;51.948;5.922;2023-05-23T08:03:50;102105.78;;;15.96;81.84
57568;BME280;43403;51.948;5.922;2023-05-23T08:06:16;102105.56;;;16.08;81.80
57568;BME280;43403;51.948;5.922;2023-05-23T08:08:43;102106.13;;;16.11;82.72
57568;BME280;43403;51.948;5.922;2023-05-23T08:11:11;102113.13;;;16.20;80.67
57568;BME280;43403;51.948;5.922;2023-05-23T08:13:37;102109.81;;;16.00;79.10
57568;BME280;43403;51.948;5.922;2023-05-23T08:16:04;102112.53;;;16.09;83.78
57568;BME280;43403;51.948;5.922;2023-05-23T08:18:30;102119.94;;;16.05;83.05
57568;BME280;43403;51.948;5.922;2023-05-23T08:20:57;102120.94;;;16.04;81.74
57568;BME280;43403;51.948;5.922;2023-05-23T08:23:23;102122.50;;;15.97;81.21
57568;BME280;43403;51.948;5.922;2023-05-23T08:25:51;102122.88;;;16.02;82.11
57568;BME280;43403;51.948;5.922;2023-05-23T08:28:17;102127.19;;;16.03;83.43
57568;BME280;43403;51.948;5.922;2023-05-23T08:30:44;102134.69;;;16.08;79.78
57568;BME280;43403;51.948;5.922;2023-05-23T08:33:11;102134.69;;;16.26;79.78
57568;BME280;43403;51.948;5.922;2023-05-23T08:35:38;102139.81;;;16.45;78.07
57568;BME280;43403;51.948;5.922;2023-05-23T08:38:05;102140.22;;;16.76;74.36
57568;BME280;43403;51.948;5.922;2023-05-23T08:40:35;102149.09;;;17.11;75.89
57568;BME280;43403;51.948;5.922;2023-05-23T08:43:02;102143.50;;;17.23;72.03
57568;BME280;43403;51.948;5.922;2023-05-23T08:45:29;102133.56;;;17.25;69.51
57568;BME280;43403;51.948;5.922;2023-05-23T08:47:59;102132.84;;;17.41;71.67
57568;BME280;43403;51.948;5.922;2023-05-23T08:50:27;102130.53;;;17.54;70.83
57568;BME280;43403;51.948;5.922;2023-05-23T08:52:56;102136.69;;;17.54;68.60
57568;BME280;43403;51.948;5.922;2023-05-23T08:55:24;102147.78;;;17.58;69.04
57568;BME280;43403;51.948;5.922;2023-05-23T08:57:57;102151.41;;;17.41;69.14
57568;BME280;43403;51.948;5.922;2023-05-23T09:00:26;102145.38;;;17.30;69.60
57568;BME280;43403;51.948;5.922;2023-05-23T09:02:53;102150.03;;;17.02;68.87
57568;BME280;43403;51.948;5.922;2023-05-23T09:05:20;102153.63;;;17.19;69.58
57568;BME280;43403;51.948;5.922;2023-05-23T09:07:48;102152.25;;;17.15;69.10
57568;BME280;43403;51.948;5.922;2023-05-23T09:10:17;102156.88;;;17.13;68.53
57568;BME280;43403;51.948;5.922;2023-05-23T09:12:48;102152.63;;;17.20;69.89
57568;BME280;43403;51.948;5.922;2023-05-23T09:15:14;102159.75;;;17.19;66.19
57568;BME280;43403;51.948;5.922;2023-05-23T09:17:43;102163.78;;;17.32;65.71
57568;BME280;43403;51.948;5.922;2023-05-23T09:20:13;102165.13;;;17.36;66.30
57568;BME280;43403;51.948;5.922;2023-05-23T09:22:47;102173.28;;;17.43;64.05
57568;BME280;43403;51.948;5.922;2023-05-23T09:25:14;102175.41;;;17.39;63.59
57568;BME280;43403;51.948;5.922;2023-05-23T09:27:41;102164.19;;;17.53;63.37
57568;BME280;43403;51.948;5.922;2023-05-23T09:30:12;102173.00;;;17.88;64.22
57568;BME280;43403;51.948;5.922;2023-05-23T09:32:39;102169.38;;;17.97;62.35
57568;BME280;43403;51.948;5.922;2023-05-23T09:35:06;102174.19;;;18.02;60.67
57568;BME280;43403;51.948;5.922;2023-05-23T09:37:37;102162.59;;;18.11;61.28
57568;BME280;43403;51.948;5.922;2023-05-23T09:40:06;102170.41;;;18.70;62.94
57568;BME280;43403;51.948;5.922;2023-05-23T09:42:41;102163.09;;;18.97;59.94
57568;BME280;43403;51.948;5.922;2023-05-23T09:45:08;102166.72;;;19.12;59.51
57568;BME280;43403;51.948;5.922;2023-05-23T09:47:35;102172.00;;;19.29;58.49
57568;BME280;43403;51.948;5.922;2023-05-23T09:50:02;102175.81;;;19.26;56.19
57568;BME280;43403;51.948;5.922;2023-05-23T09:52:36;102172.72;;;19.54;55.12
57568;BME280;43403;51.948;5.922;2023-05-23T09:55:06;102167.84;;;19.74;55.92
57568;BME280;43403;51.948;5.922;2023-05-23T09:57:39;102166.72;;;19.60;56.09
57568;BME280;43403;51.948;5.922;2023-05-23T10:00:08;102169.97;;;19.79;55.43
57568;BME280;43403;51.948;5.922;2023-05-23T10:05:43;102177.03;;;19.94;54.51
57568;BME280;43403;51.948;5.922;2023-05-23T10:08:21;102169.66;;;20.05;55.05
57568;BME280;43403;51.948;5.922;2023-05-23T10:13:25;102181.69;;;20.24;53.55
57568;BME280;43403;51.948;5.922;2023-05-23T10:15:58;102167.63;;;20.07;51.53
57568;BME280;43403;51.948;5.922;2023-05-23T10:18:28;102167.16;;;19.80;52.88
57568;BME280;43403;51.948;5.922;2023-05-23T10:20:56;102180.19;;;19.98;53.52
57568;BME280;43403;51.948;5.922;2023-05-23T10:23:26;102171.44;;;20.12;52.05
57568;BME280;43403;51.948;5.922;2023-05-23T10:25:54;102176.75;;;20.12;50.07
57568;BME280;43403;51.948;5.922;2023-05-23T10:28:20;102168.84;;;20.50;50.43
57568;BME280;43403;51.948;5.922;2023-05-23T10:30:47;102168.72;;;20.67;49.79
57568;BME280;43403;51.948;5.922;2023-05-23T10:33:14;102168.25;;;20.63;49.09
57568;BME280;43403;51.948;5.922;2023-05-23T10:41:06;102169.97;;;20.94;49.51
57568;BME280;43403;51.948;5.922;2023-05-23T10:43:55;102170.84;;;20.48;48.87
57568;BME280;43403;51.948;5.922;2023-05-23T10:46:49;102173.31;;;20.50;50.57
57568;BME280;43403;51.948;5.922;2023-05-23T10:49:18;102176.41;;;20.62;49.83
57568;BME280;43403;51.948;5.922;2023-05-23T10:51:49;102177.28;;;20.54;47.99
57568;BME280;43403;51.948;5.922;2023-05-23T10:54:18;102170.50;;;20.89;49.44
57568;BME280;43403;51.948;5.922;2023-05-23T10:56:45;102174.84;;;21.05;50.59
57568;BME280;43403;51.948;5.922;2023-05-23T10:59:19;102169.19;;;20.70;49.89
57568;BME280;43403;51.948;5.922;2023-05-23T11:01:50;102174.53;;;20.70;49.51
57568;BME280;43403;51.948;5.922;2023-05-23T11:04:23;102179.47;;;20.73;50.80
57568;BME280;43403;51.948;5.922;2023-05-23T11:06:52;102175.41;;;20.63;50.53
57568;BME280;43403;51.948;5.922;2023-05-23T11:09:19;102170.47;;;20.74;50.58
57568;BME280;43403;51.948;5.922;2023-05-23T11:12:03;102172.44;;;20.96;50.68
57568;BME280;43403;51.948;5.922;2023-05-23T11:14:33;102169.75;;;20.81;50.19
57568;BME280;43403;51.948;5.922;2023-05-23T11:17:14;102169.50;;;21.05;48.45
57568;BME280;43403;51.948;5.922;2023-05-23T11:20:00;102175.41;;;21.16;49.06
57568;BME280;43403;51.948;5.922;2023-05-23T11:22:28;102165.19;;;21.49;48.79
57568;BME280;43403;51.948;5.922;2023-05-23T11:24:58;102165.47;;;21.90;49.69
57568;BME280;43403;51.948;5.922;2023-05-23T11:27:35;102171.72;;;21.98;46.72
57568;BME280;43403;51.948;5.922;2023-05-23T11:30:13;102163.63;;;22.27;45.84
57568;BME280;43403;51.948;5.922;2023-05-23T11:32:41;102163.28;;;22.37;46.49
57568;BME280;43403;51.948;5.922;2023-05-23T11:35:09;102180.13;;;22.16;45.78
57568;BME280;43403;51.948;5.922;2023-05-23T11:37:37;102174.38;;;21.76;46.57
57568;BME280;43403;51.948;5.922;2023-05-23T11:40:33;102180.34;;;21.63;46.55
57568;BME280;43403;51.948;5.922;2023-05-23T11:43:08;102189.31;;;21.41;48.17
57568;BME280;43403;51.948;5.922;2023-05-23T11:45:36;102189.47;;;21.54;47.25
57568;BME280;43403;51.948;5.922;2023-05-23T11:48:07;102182.44;;;21.83;46.37
57568;BME280;43403;51.948;5.922;2023-05-23T11:50:49;102183.59;;;22.17;48.41
57568;BME280;43403;51.948;5.922;2023-05-23T11:53:16;102189.50;;;22.48;47.07
57568;BME280;43403;51.948;5.922;2023-05-23T11:55:56;102176.22;;;22.62;43.27
57568;BME280;43403;51.948;5.922;2023-05-23T11:58:32;102176.94;;;22.70;46.01
57568;BME280;43403;51.948;5.922;2023-05-23T12:01:00;102176.84;;;22.64;45.49
57568;BME280;43403;51.948;5.922;2023-05-23T12:03:29;102177.78;;;22.28;46.19
57568;BME280;43403;51.948;5.922;2023-05-23T12:05:57;102188.28;;;21.93;47.21
57568;BME280;43403;51.948;5.922;2023-05-23T12:08:23;102194.81;;;21.69;47.32
57568;BME280;43403;51.948;5.922;2023-05-23T12:10:57;102192.13;;;21.69;46.39
57568;BME280;43403;51.948;5.922;2023-05-23T12:13:28;102190.16;;;21.92;47.46
57568;BME280;43403;51.948;5.922;2023-05-23T12:15:55;102178.63;;;22.28;46.57
57568;BME280;43403;51.948;5.922;2023-05-23T12:20:49;102195.88;;;22.47;45.19
57568;BME280;43403;51.948;5.922;2023-05-23T12:23:23;102183.44;;;22.40;43.85
57568;BME280;43403;51.948;5.922;2023-05-23T12:25:51;102186.44;;;22.30;45.51
57568;BME280;43403;51.948;5.922;2023-05-23T12:28:42;102187.16;;;22.02;44.08
57568;BME280;43403;51.948;5.922;2023-05-23T12:31:16;102195.97;;;22.18;44.53
57568;BME280;43403;51.948;5.922;2023-05-23T12:33:44;102192.72;;;22.22;44.33
57568;BME280;43403;51.948;5.922;2023-05-23T12:36:11;102193.56;;;22.23;45.42
57568;BME280;43403;51.948;5.922;2023-05-23T12:38:38;102198.34;;;22.49;44.90
57568;BME280;43403;51.948;5.922;2023-05-23T12:41:10;102196.72;;;22.76;44.57
57568;BME280;43403;51.948;5.922;2023-05-23T12:43:47;102205.16;;;23.01;43.88
57568;BME280;43403;51.948;5.922;2023-05-23T12:46:14;102198.88;;;23.16;44.21
57568;BME280;43403;51.948;5.922;2023-05-23T12:48:41;102191.00;;;23.07;42.60
57568;BME280;43403;51.948;5.922;2023-05-23T12:51:07;102207.97;;;23.21;43.01
57568;BME280;43403;51.948;5.922;2023-05-23T12:53:34;102207.53;;;23.18;43.83
57568;BME280;43403;51.948;5.922;2023-05-23T12:56:01;102205.22;;;22.86;42.17
57568;BME280;43403;51.948;5.922;2023-05-23T12:58:28;102211.03;;;22.90;43.91
57568;BME280;43403;51.948;5.922;2023-05-23T13:00:57;102220.91;;;22.89;42.98
57568;BME280;43403;51.948;5.922;2023-05-23T13:03:24;102218.53;;;23.01;43.35
57568;BME280;43403;51.948;5.922;2023-05-23T13:05:53;102204.50;;;22.99;43.03
57568;BME280;43403;51.948;5.922;2023-05-23T13:08:20;102217.22;;;22.97;44.50
57568;BME280;43403;51.948;5.922;2023-05-23T13:10:47;102207.94;;;22.65;42.75
57568;BME280;43403;51.948;5.922;2023-05-23T13:13:14;102202.66;;;22.50;43.31